Time;durP1;ratioP1;P1;durP2;ratioP2;P2;SDS_P1;SDS_P2;PMS_P1;PMS_P2;Temp;Humidity;BMP_temperature;BMP_pressure;BME280_temperature;BME280_humidity;BME280_pressure;Samples;Min_cycle;Max_cycle;Signal;HPM_P1;HPM_P2
2022/09/04 00:01:16;;;;;;;20.80;18.75;;;;;;;;;;4969294;28;20193;-70
2022/09/04 00:03:44;;;;;;;19.85;18.23;;;;;;;;;;4964562;28;20039;-69
2022/09/04 00:06:18;;;;;;;20.48;18.90;;;;;;;;;;4970531;28;20050;-69
2022/09/04 00:08:55;;;;;;;21.13;19.25;;;;;;;;;;4967191;28;20081;-69
2022/09/04 00:11:43;;;;;;;21.65;19.80;;;;;;;;;;4967856;28;20045;-69
2022/09/04 00:14:26;;;;;;;21.30;19.08;;;;;;;;;;4969253;28;20053;-69
2022/09/04 00:17:05;;;;;;;20.80;19.10;;;;;;;;;;4966062;28;20646;-69
2022/09/04 00:19:47;;;;;;;20.58;18.77;;;;;;;;;;4971114;28;20395;-69
2022/09/04 00:22:47;;;;;;;21.77;19.85;;;;;;;;;;4975408;28;20054;-69
2022/09/04 00:25:25;;;;;;;20.38;18.67;;;;;;;;;;4973826;28;20098;-69
2022/09/04 00:27:58;;;;;;;21.00;19.33;;;;;;;;;;4968983;28;20749;-70
2022/09/04 00:30:25;;;;;;;20.75;19.05;;;;;;;;;;4981244;28;20454;-70
2022/09/04 00:33:00;;;;;;;21.42;19.77;;;;;;;;;;4995158;28;20049;-69
2022/09/04 00:35:33;;;;;;;21.88;20.08;;;;;;;;;;5007305;28;20034;-69
2022/09/04 00:38:14;;;;;;;21.40;19.70;;;;;;;;;;5009039;28;20096;-69
2022/09/04 00:40:46;;;;;;;20.85;19.05;;;;;;;;;;5001544;28;20038;-69
2022/09/04 00:43:29;;;;;;;20.95;19.25;;;;;;;;;;5008586;28;20037;-70
2022/09/04 00:46:17;;;;;;;20.98;19.17;;;;;;;;;;5009970;28;20135;-70
2022/09/04 00:49:10;;;;;;;21.13;19.13;;;;;;;;;;5008205;28;20033;-70
2022/09/04 00:52:17;;;;;;;21.75;19.88;;;;;;;;;;5007882;28;20030;-70
2022/09/04 00:55:20;;;;;;;21.23;19.52;;;;;;;;;;5009015;28;20069;-70
2022/09/04 00:58:01;;;;;;;22.70;20.60;;;;;;;;;;5009811;28;20022;-69
2022/09/04 01:00:27;;;;;;;22.73;20.38;;;;;;;;;;5006378;28;20485;-69
2022/09/04 01:03:18;;;;;;;21.92;19.90;;;;;;;;;;5008366;28;20052;-69
2022/09/04 01:05:50;;;;;;;21.95;20.02;;;;;;;;;;5005563;28;20037;-70
2022/09/04 01:08:35;;;;;;;22.02;19.77;;;;;;;;;;5007884;28;20029;-70
2022/09/04 01:11:28;;;;;;;20.98;19.08;;;;;;;;;;5008267;28;20037;-70
2022/09/04 01:14:11;;;;;;;20.88;19.10;;;;;;;;;;5006232;28;20038;-69
2022/09/04 01:17:06;;;;;;;20.80;19.08;;;;;;;;;;5006503;28;20030;-69
2022/09/04 01:20:20;;;;;;;22.23;20.25;;;;;;;;;;5005732;28;20065;-70
2022/09/04 01:22:46;;;;;;;22.27;20.08;;;;;;;;;;4989934;28;20516;-70
2022/09/04 01:25:29;;;;;;;22.67;20.80;;;;;;;;;;5007731;28;20034;-70
2022/09/04 01:28:00;;;;;;;21.38;19.52;;;;;;;;;;5011689;28;20037;-70
2022/09/04 01:30:30;;;;;;;21.67;19.77;;;;;;;;;;5009793;28;20095;-70
2022/09/04 01:33:19;;;;;;;21.52;19.63;;;;;;;;;;5009576;28;20100;-70
2022/09/04 01:36:07;;;;;;;23.50;20.83;;;;;;;;;;5009601;28;20550;-70
2022/09/04 01:39:00;;;;;;;23.50;21.52;;;;;;;;;;5008100;28;20485;-70
2022/09/04 01:41:32;;;;;;;22.35;20.42;;;;;;;;;;5009662;28;20701;-70
2022/09/04 01:43:58;;;;;;;22.10;20.20;;;;;;;;;;5012741;28;20038;-70
2022/09/04 01:46:43;;;;;;;22.38;20.30;;;;;;;;;;5009286;28;20042;-70
2022/09/04 01:49:33;;;;;;;39.83;20.40;;;;;;;;;;5009080;28;20103;-70
2022/09/04 01:52:17;;;;;;;40.67;19.17;;;;;;;;;;5012334;28;20041;-70
2022/09/04 01:54:55;;;;;;;30.48;18.92;;;;;;;;;;5010096;28;20021;-70
2022/09/04 01:57:33;;;;;;;28.55;19.00;;;;;;;;;;5013483;28;20133;-70
2022/09/04 01:59:59;;;;;;;21.02;19.33;;;;;;;;;;5013784;28;20069;-70
2022/09/04 02:02:31;;;;;;;21.65;19.73;;;;;;;;;;5018222;28;20432;-70
2022/09/04 02:05:32;;;;;;;20.75;19.15;;;;;;;;;;5009647;28;20033;-70
2022/09/04 02:08:23;;;;;;;22.65;20.60;;;;;;;;;;5010135;28;20037;-70
2022/09/04 02:11:12;;;;;;;59.10;22.00;;;;;;;;;;4999947;28;20041;-70
2022/09/04 02:13:55;;;;;;;82.18;23.85;;;;;;;;;;5009938;28;20053;-70
2022/09/04 02:16:42;;;;;;;99.95;24.10;;;;;;;;;;5009208;28;20034;-70
2022/09/04 02:19:13;;;;;;;263.58;24.77;;;;;;;;;;5011963;28;20124;-70
2022/09/04 02:22:07;;;;;;;327.95;26.20;;;;;;;;;;5014234;28;20041;-70
2022/09/04 02:24:52;;;;;;;204.73;23.73;;;;;;;;;;5014866;28;20045;-70
2022/09/04 02:27:33;;;;;;;197.95;25.33;;;;;;;;;;5014020;28;20042;-70
2022/09/04 02:30:01;;;;;;;144.38;22.55;;;;;;;;;;5013855;28;20065;-70
2022/09/04 02:32:43;;;;;;;217.18;25.38;;;;;;;;;;5010626;28;20030;-70
2022/09/04 02:35:41;;;;;;;197.80;24.38;;;;;;;;;;5013491;28;20109;-70
2022/09/04 02:38:25;;;;;;;283.85;27.42;;;;;;;;;;5015702;28;20096;-70
2022/09/04 02:40:55;;;;;;;168.27;22.65;;;;;;;;;;5013336;28;20037;-70
2022/09/04 02:43:38;;;;;;;210.10;25.00;;;;;;;;;;5013785;28;20124;-70
2022/09/04 02:46:13;;;;;;;198.25;25.92;;;;;;;;;;5015370;28;20042;-70
2022/09/04 02:48:47;;;;;;;112.53;24.63;;;;;;;;;;5011485;28;20739;-70
2022/09/04 02:51:38;;;;;;;129.45;25.75;;;;;;;;;;5011716;28;20069;-70
2022/09/04 02:54:23;;;;;;;114.93;23.38;;;;;;;;;;5016312;28;20041;-70
2022/09/04 02:57:16;;;;;;;50.60;22.15;;;;;;;;;;5015367;28;20042;-70
2022/09/04 02:59:46;;;;;;;102.68;23.00;;;;;;;;;;5013810;28;20120;-70
2022/09/04 03:02:28;;;;;;;50.55;22.73;;;;;;;;;;5012017;28;20040;-70
2022/09/04 03:05:24;;;;;;;142.60;24.55;;;;;;;;;;5009677;28;20045;-70
2022/09/04 03:08:14;;;;;;;190.02;27.50;;;;;;;;;;5010661;28;20037;-70
2022/09/04 03:10:50;;;;;;;288.52;25.75;;;;;;;;;;5008184;28;20723;-70
2022/09/04 03:13:41;;;;;;;219.57;25.02;;;;;;;;;;5008628;28;20069;-70
2022/09/04 03:16:14;;;;;;;291.10;27.98;;;;;;;;;;5010147;28;20034;-70
2022/09/04 03:18:57;;;;;;;318.70;26.67;;;;;;;;;;5010073;28;20049;-70
2022/09/04 03:21:45;;;;;;;278.98;27.10;;;;;;;;;;5006864;28;20037;-70
2022/09/04 03:24:37;;;;;;;444.90;31.90;;;;;;;;;;5007086;28;20053;-71
2022/09/04 03:27:12;;;;;;;265.42;26.13;;;;;;;;;;5009133;28;20034;-70
2022/09/04 03:29:50;;;;;;;345.55;27.85;;;;;;;;;;5010434;28;20378;-70
2022/09/04 03:32:33;;;;;;;472.27;32.45;;;;;;;;;;5004288;28;20095;-70
2022/09/04 03:35:28;;;;;;;332.30;26.58;;;;;;;;;;5006293;28;20034;-71
2022/09/04 03:37:53;;;;;;;338.52;27.05;;;;;;;;;;5012197;28;20037;-70
2022/09/04 03:40:36;;;;;;;291.65;27.33;;;;;;;;;;5010856;28;20429;-70
2022/09/04 03:43:04;;;;;;;227.20;24.83;;;;;;;;;;5010443;28;20042;-70
2022/09/04 03:45:53;;;;;;;250.90;24.00;;;;;;;;;;5010701;28;20592;-70
2022/09/04 03:48:31;;;;;;;217.77;24.38;;;;;;;;;;5007569;28;20164;-70
2022/09/04 03:51:17;;;;;;;167.57;24.48;;;;;;;;;;5009232;28;20104;-70
2022/09/04 03:54:04;;;;;;;261.77;25.10;;;;;;;;;;5009267;28;20088;-70
2022/09/04 03:56:45;;;;;;;154.32;22.70;;;;;;;;;;5009856;28;20516;-70
2022/09/04 03:59:46;;;;;;;169.60;22.98;;;;;;;;;;5008852;28;20531;-70
2022/09/04 04:02:36;;;;;;;183.18;23.17;;;;;;;;;;5009018;28;20044;-70
2022/09/04 04:05:26;;;;;;;152.88;24.33;;;;;;;;;;5010627;28;20124;-70
2022/09/04 04:08:26;;;;;;;99.45;22.42;;;;;;;;;;5010501;28;20458;-70
2022/09/04 04:11:25;;;;;;;71.57;20.52;;;;;;;;;;5003404;28;20077;-70
2022/09/04 04:14:29;;;;;;;21.58;19.50;;;;;;;;;;5008222;28;20038;-70
2022/09/04 04:17:18;;;;;;;30.13;20.25;;;;;;;;;;5011408;28;20224;-70
2022/09/04 04:20:16;;;;;;;21.65;19.95;;;;;;;;;;5003678;28;20516;-70
2022/09/04 04:23:19;;;;;;;91.63;22.83;;;;;;;;;;5001892;28;20153;-70
2022/09/04 04:26:08;;;;;;;135.10;22.48;;;;;;;;;;5006411;28;20509;-69
2022/09/04 04:28:58;;;;;;;92.03;21.63;;;;;;;;;;5009086;28;20053;-70
2022/09/04 04:32:12;;;;;;;141.30;23.20;;;;;;;;;;5010090;28;20366;-70
2022/09/04 04:35:11;;;;;;;66.50;21.40;;;;;;;;;;5007296;28;20037;-69
2022/09/04 04:37:58;;;;;;;21.90;20.00;;;;;;;;;;5013382;28;20037;-69
2022/09/04 04:40:47;;;;;;;25.70;20.17;;;;;;;;;;5015784;28;20131;-70
2022/09/04 04:43:59;;;;;;;22.05;20.00;;;;;;;;;;5011269;28;20051;-69
2022/09/04 04:46:50;;;;;;;21.30;19.70;;;;;;;;;;5010535;28;20183;-69
2022/09/04 04:49:32;;;;;;;22.58;20.55;;;;;;;;;;5008864;28;20651;-69
2022/09/04 04:52:07;;;;;;;22.50;20.38;;;;;;;;;;5007826;28;20149;-69
2022/09/04 04:55:05;;;;;;;23.73;20.90;;;;;;;;;;5010285;28;20037;-69
2022/09/04 04:57:45;;;;;;;185.90;24.95;;;;;;;;;;4978797;28;20044;-69
2022/09/04 05:00:18;;;;;;;416.13;30.52;;;;;;;;;;5007645;28;20030;-69
2022/09/04 05:03:17;;;;;;;93.63;22.50;;;;;;;;;;5006123;28;20037;-69
2022/09/04 05:06:05;;;;;;;52.40;21.35;;;;;;;;;;5007993;28;20121;-69
2022/09/04 05:09:13;;;;;;;93.65;21.52;;;;;;;;;;5008709;28;20060;-69
2022/09/04 05:11:51;;;;;;;186.32;23.17;;;;;;;;;;5005136;28;20033;-69
2022/09/04 05:14:23;;;;;;;402.60;29.70;;;;;;;;;;5008353;28;21495;-69
2022/09/04 05:17:23;;;;;;;258.33;24.83;;;;;;;;;;5010492;28;20292;-69
2022/09/04 05:20:13;;;;;;;218.90;23.55;;;;;;;;;;5006123;28;20068;-69
2022/09/04 05:22:43;;;;;;;168.70;23.05;;;;;;;;;;5009809;28;20500;-69
2022/09/04 05:25:29;;;;;;;184.75;23.23;;;;;;;;;;5008076;28;20065;-69
2022/09/04 05:28:12;;;;;;;175.02;22.42;;;;;;;;;;5006141;28;20040;-69
2022/09/04 05:30:50;;;;;;;144.77;22.88;;;;;;;;;;5006748;28;20045;-69
2022/09/04 05:33:47;;;;;;;233.45;25.58;;;;;;;;;;5009417;28;20037;-69
2022/09/04 05:36:39;;;;;;;183.13;23.25;;;;;;;;;;5010785;28;20050;-69
2022/09/04 05:39:25;;;;;;;119.95;22.33;;;;;;;;;;5008476;28;20042;-69
2022/09/04 05:41:53;;;;;;;106.03;22.75;;;;;;;;;;5011593;28;20025;-69
2022/09/04 05:44:28;;;;;;;84.60;21.50;;;;;;;;;;5010622;28;20041;-69
2022/09/04 05:47:10;;;;;;;118.53;22.17;;;;;;;;;;5011570;28;20065;-69
2022/09/04 05:50:05;;;;;;;91.22;23.30;;;;;;;;;;5013541;28;20042;-70
2022/09/04 05:52:42;;;;;;;46.50;21.33;;;;;;;;;;4969570;28;20045;-69
2022/09/04 05:55:36;;;;;;;143.43;23.27;;;;;;;;;;5009815;28;20034;-69
2022/09/04 05:58:32;;;;;;;151.85;22.50;;;;;;;;;;5008104;28;20043;-69
2022/09/04 06:01:11;;;;;;;183.98;21.80;;;;;;;;;;5005337;28;20048;-69
2022/09/04 06:04:14;;;;;;;390.67;30.67;;;;;;;;;;5005995;28;20665;-69
2022/09/04 06:06:51;;;;;;;253.45;26.13;;;;;;;;;;5006025;28;20052;-69
2022/09/04 06:09:20;;;;;;;305.52;26.55;;;;;;;;;;5004494;28;20386;-69
2022/09/04 06:12:08;;;;;;;431.90;30.20;;;;;;;;;;5004397;28;20033;-69
2022/09/04 06:14:56;;;;;;;241.53;24.20;;;;;;;;;;5006397;28;20651;-69
2022/09/04 06:17:40;;;;;;;58.13;20.75;;;;;;;;;;5003570;28;20124;-69
2022/09/04 06:20:27;;;;;;;21.80;19.77;;;;;;;;;;5005780;28;20841;-69
2022/09/04 06:23:20;;;;;;;65.50;22.13;;;;;;;;;;5006169;28;20030;-69
2022/09/04 06:26:17;;;;;;;22.33;20.30;;;;;;;;;;5004181;28;20034;-69
2022/09/04 06:28:52;;;;;;;23.35;21.20;;;;;;;;;;5005322;28;20046;-69
2022/09/04 06:31:17;;;;;;;29.13;20.65;;;;;;;;;;5004656;28;20042;-69
2022/09/04 06:34:05;;;;;;;21.50;19.48;;;;;;;;;;5005168;28;20041;-69
2022/09/04 06:36:52;;;;;;;21.23;19.63;;;;;;;;;;5005102;28;20041;-69
2022/09/04 06:39:56;;;;;;;21.38;19.58;;;;;;;;;;5006423;28;20137;-69
2022/09/04 06:42:30;;;;;;;22.27;20.38;;;;;;;;;;5003660;28;20076;-69
2022/09/04 06:45:16;;;;;;;21.05;19.45;;;;;;;;;;5005716;28;20038;-70
2022/09/04 06:48:12;;;;;;;20.23;18.67;;;;;;;;;;5005066;28;20030;-69
2022/09/04 06:50:57;;;;;;;20.33;18.83;;;;;;;;;;5004662;28;20036;-69
2022/09/04 06:53:37;;;;;;;20.17;18.77;;;;;;;;;;5003318;28;20038;-69
2022/09/04 06:56:21;;;;;;;20.55;19.05;;;;;;;;;;5002138;28;20374;-69
2022/09/04 06:58:56;;;;;;;21.92;20.25;;;;;;;;;;5003597;28;20056;-69
2022/09/04 07:01:38;;;;;;;21.35;19.35;;;;;;;;;;5005533;28;20034;-69
2022/09/04 07:04:51;;;;;;;20.15;18.75;;;;;;;;;;5013442;28;20033;-69
2022/09/04 07:07:29;;;;;;;19.20;17.90;;;;;;;;;;4977390;28;20075;-69
2022/09/04 07:10:01;;;;;;;17.50;16.40;;;;;;;;;;5011965;28;20112;-69
2022/09/04 07:12:52;;;;;;;18.77;17.38;;;;;;;;;;5009379;28;20034;-69
2022/09/04 07:15:27;;;;;;;17.92;16.60;;;;;;;;;;5007616;28;20590;-69
2022/09/04 07:18:22;;;;;;;18.80;17.55;;;;;;;;;;5010863;28;20061;-69
2022/09/04 07:21:10;;;;;;;17.95;16.52;;;;;;;;;;5008434;28;20045;-69
2022/09/04 07:24:01;;;;;;;18.15;16.95;;;;;;;;;;5009757;28;20040;-69
2022/09/04 07:27:19;;;;;;;17.02;15.93;;;;;;;;;;5007976;28;20034;-69
2022/09/04 07:30:00;;;;;;;17.20;15.95;;;;;;;;;;4965162;28;20042;-69
2022/09/04 07:32:49;;;;;;;16.50;15.40;;;;;;;;;;4966246;28;20039;-69
2022/09/04 07:35:18;;;;;;;17.17;15.98;;;;;;;;;;4966557;28;20042;-69
2022/09/04 07:37:46;;;;;;;15.60;14.68;;;;;;;;;;4969523;28;20181;-68
2022/09/04 07:40:18;;;;;;;16.27;15.07;;;;;;;;;;4967164;28;20117;-68
2022/09/04 07:42:52;;;;;;;15.88;14.88;;;;;;;;;;4967335;28;20306;-68
2022/09/04 07:45:35;;;;;;;15.20;14.20;;;;;;;;;;4977445;28;20045;-68
2022/09/04 07:48:21;;;;;;;15.48;14.27;;;;;;;;;;4968621;28;20182;-68
2022/09/04 07:51:03;;;;;;;14.82;13.75;;;;;;;;;;4962087;28;20097;-69
2022/09/04 07:53:50;;;;;;;15.00;14.00;;;;;;;;;;4966689;28;20049;-68
2022/09/04 07:56:41;;;;;;;14.85;13.85;;;;;;;;;;4974282;28;20047;-68
2022/09/04 07:59:31;;;;;;;14.35;13.30;;;;;;;;;;4967432;28;21241;-68
2022/09/04 08:02:00;;;;;;;13.90;13.10;;;;;;;;;;5010841;28;20038;-68
2022/09/04 08:04:45;;;;;;;14.32;13.43;;;;;;;;;;5009339;28;20460;-69
2022/09/04 08:07:20;;;;;;;14.27;13.35;;;;;;;;;;5010059;28;20038;-69
2022/09/04 08:10:01;;;;;;;13.85;12.95;;;;;;;;;;5007698;28;20041;-69
2022/09/04 08:12:52;;;;;;;14.25;13.15;;;;;;;;;;5008684;28;20105;-68
2022/09/04 08:15:25;;;;;;;14.25;13.32;;;;;;;;;;5008366;28;20053;-69
2022/09/04 08:18:14;;;;;;;13.60;12.52;;;;;;;;;;5006619;28;20053;-69
2022/09/04 08:21:00;;;;;;;13.25;12.38;;;;;;;;;;5007750;28;20052;-68
2022/09/04 08:24:07;;;;;;;13.32;12.52;;;;;;;;;;5008782;28;20108;-68
2022/09/04 08:26:39;;;;;;;12.88;12.07;;;;;;;;;;4952903;28;20058;-68
2022/09/04 08:29:25;;;;;;;13.27;12.23;;;;;;;;;;4952726;28;20041;-68
2022/09/04 08:32:09;;;;;;;13.32;12.52;;;;;;;;;;4948359;28;20071;-68
2022/09/04 08:34:41;;;;;;;13.02;12.05;;;;;;;;;;4954130;28;20320;-68
2022/09/04 08:37:21;;;;;;;13.00;12.07;;;;;;;;;;4952576;28;20090;-68
2022/09/04 08:40:03;;;;;;;12.25;11.50;;;;;;;;;;4951621;28;20039;-68
2022/09/04 08:42:50;;;;;;;13.23;12.23;;;;;;;;;;4954092;28;20039;-68
2022/09/04 08:45:46;;;;;;;12.73;11.68;;;;;;;;;;4935126;28;20134;-68
2022/09/04 08:48:54;;;;;;;13.02;12.13;;;;;;;;;;4952650;28;20062;-68
2022/09/04 08:51:38;;;;;;;12.68;11.50;;;;;;;;;;4930323;29;20055;-68
2022/09/04 08:54:15;;;;;;;12.43;11.43;;;;;;;;;;4948290;28;20031;-70
2022/09/04 08:57:12;;;;;;;11.82;10.80;;;;;;;;;;4961863;28;20587;-68
2022/09/04 09:00:06;;;;;;;12.00;11.15;;;;;;;;;;5005464;28;20030;-68
2022/09/04 09:02:37;;;;;;;12.50;11.60;;;;;;;;;;5006653;28;20143;-68
2022/09/04 09:05:18;;;;;;;12.27;11.27;;;;;;;;;;5005846;28;20484;-68
2022/09/04 09:08:09;;;;;;;12.93;11.93;;;;;;;;;;5004674;28;20655;-68
2022/09/04 09:11:16;;;;;;;11.68;10.98;;;;;;;;;;5004876;28;20061;-68
2022/09/04 09:14:00;;;;;;;12.13;11.40;;;;;;;;;;5005926;28;20037;-68
2022/09/04 09:16:35;;;;;;;12.27;11.20;;;;;;;;;;5006666;28;20064;-67
2022/09/04 09:19:32;;;;;;;12.07;11.27;;;;;;;;;;5005389;28;20420;-68
2022/09/04 09:22:13;;;;;;;11.55;10.85;;;;;;;;;;5007085;28;20033;-68
2022/09/04 09:25:10;;;;;;;11.02;10.27;;;;;;;;;;5003256;28;20077;-67
2022/09/04 09:27:54;;;;;;;10.50;9.70;;;;;;;;;;5004228;28;20088;-68
2022/09/04 09:30:21;;;;;;;10.68;9.93;;;;;;;;;;5006534;28;20100;-68
2022/09/04 09:32:51;;;;;;;11.10;10.20;;;;;;;;;;5007421;28;20061;-68
2022/09/04 09:35:50;;;;;;;10.98;10.10;;;;;;;;;;5002504;28;20129;-68
2022/09/04 09:38:43;;;;;;;10.93;9.90;;;;;;;;;;5004795;28;20120;-67
2022/09/04 09:41:40;;;;;;;10.25;9.55;;;;;;;;;;5005416;28;20038;-67
2022/09/04 09:44:43;;;;;;;9.50;8.73;;;;;;;;;;5005950;28;20472;-67
2022/09/04 09:47:31;;;;;;;9.60;9.00;;;;;;;;;;5011919;28;20041;-67
2022/09/04 09:50:20;;;;;;;10.27;9.57;;;;;;;;;;5005422;28;20034;-67
2022/09/04 09:53:23;;;;;;;9.63;8.82;;;;;;;;;;5005086;28;20042;-67
2022/09/04 09:56:02;;;;;;;9.50;8.90;;;;;;;;;;5004661;28;20034;-67
2022/09/04 09:58:36;;;;;;;10.10;9.40;;;;;;;;;;5003646;28;20061;-67
2022/09/04 10:01:31;;;;;;;10.60;9.57;;;;;;;;;;5005155;28;20615;-67
2022/09/04 10:03:58;;;;;;;9.48;8.88;;;;;;;;;;5005473;28;20060;-67
2022/09/04 10:06:51;;;;;;;9.52;8.93;;;;;;;;;;5004406;28;20064;-67
2022/09/04 10:09:39;;;;;;;9.35;8.85;;;;;;;;;;5007896;28;20046;-67
2022/09/04 10:12:45;;;;;;;9.35;8.65;;;;;;;;;;5005243;28;20052;-67
2022/09/04 10:15:48;;;;;;;7.85;7.28;;;;;;;;;;4922462;29;20180;-67
2022/09/04 10:18:32;;;;;;;8.05;7.53;;;;;;;;;;4924367;29;20051;-67
2022/09/04 10:21:19;;;;;;;7.70;7.20;;;;;;;;;;4923849;29;20200;-67
2022/09/04 10:24:09;;;;;;;7.28;6.88;;;;;;;;;;4924058;29;20032;-67
2022/09/04 10:27:09;;;;;;;6.97;6.57;;;;;;;;;;4923966;29;20496;-67
2022/09/04 10:29:43;;;;;;;7.75;7.13;;;;;;;;;;4924039;29;20111;-67
2022/09/04 10:32:21;;;;;;;6.95;6.55;;;;;;;;;;4922963;29;20036;-67
2022/09/04 10:35:02;;;;;;;6.70;6.20;;;;;;;;;;4923922;29;20424;-67
2022/09/04 10:38:04;;;;;;;6.68;6.20;;;;;;;;;;4925905;29;20046;-67
2022/09/04 10:40:47;;;;;;;7.00;6.50;;;;;;;;;;4928021;29;20224;-67
2022/09/04 10:43:31;;;;;;;6.70;6.30;;;;;;;;;;4928093;29;20043;-67
2022/09/04 10:46:08;;;;;;;7.00;6.50;;;;;;;;;;4928713;29;20047;-66
2022/09/04 10:49:11;;;;;;;7.00;6.53;;;;;;;;;;4931749;29;20051;-67
2022/09/04 10:51:55;;;;;;;6.32;5.90;;;;;;;;;;4972862;28;20046;-67
2022/09/04 10:54:43;;;;;;;6.10;5.70;;;;;;;;;;5008887;28;20037;-67
2022/09/04 10:57:28;;;;;;;;;;;;;;;;;;5007413;28;20044;-68
2022/09/04 11:00:12;;;;;;;6.60;6.20;;;;;;;;;;5008423;28;19927;-67
2022/09/04 11:03:01;;;;;;;6.18;5.68;;;;;;;;;;5005095;28;20044;-67
2022/09/04 11:05:40;;;;;;;6.60;6.10;;;;;;;;;;5008207;28;20037;-67
2022/09/04 11:08:35;;;;;;;6.45;6.05;;;;;;;;;;5006757;28;20107;-66
2022/09/04 11:11:15;;;;;;;7.05;6.53;;;;;;;;;;5022878;28;20049;-66
2022/09/04 11:14:12;;;;;;;6.82;6.32;;;;;;;;;;5005341;28;20042;-67
2022/09/04 11:17:11;;;;;;;6.68;6.20;;;;;;;;;;5007443;28;20380;-67
2022/09/04 11:20:19;;;;;;;6.88;6.47;;;;;;;;;;5009447;28;20119;-68
2022/09/04 11:23:32;;;;;;;6.90;6.50;;;;;;;;;;5001893;28;20088;-67
2022/09/04 11:29:19;;;;;;;6.63;6.22;;;;;;;;;;5005114;28;20228;-67
2022/09/04 11:31:54;;;;;;;;;;;;;;;;;;5005386;28;20049;-67
2022/09/04 11:34:39;;;;;;;6.38;5.97;;;;;;;;;;5006546;28;19928;-67
2022/09/04 11:37:32;;;;;;;6.68;6.28;;;;;;;;;;5006411;28;20041;-66
2022/09/04 11:40:22;;;;;;;6.45;6.03;;;;;;;;;;4999090;28;20065;-67
2022/09/04 11:43:21;;;;;;;7.05;6.63;;;;;;;;;;5006868;28;20048;-66
2022/09/04 11:46:05;;;;;;;6.65;6.25;;;;;;;;;;5009567;28;20034;-66
2022/09/04 11:48:39;;;;;;;9.18;7.00;;;;;;;;;;5004911;28;20091;-66
2022/09/04 11:51:20;;;;;;;7.18;6.57;;;;;;;;;;5007418;28;20061;-67
2022/09/04 11:54:37;;;;;;;7.30;6.60;;;;;;;;;;5008619;28;20042;-66
2022/09/04 11:57:29;;;;;;;7.60;7.07;;;;;;;;;;4981385;28;20076;-67
2022/09/04 12:00:16;;;;;;;7.45;6.97;;;;;;;;;;5006978;28;20087;-66
2022/09/04 12:03:09;;;;;;;7.55;6.95;;;;;;;;;;5006873;28;20034;-66
2022/09/04 12:06:02;;;;;;;7.60;7.20;;;;;;;;;;5001651;28;20065;-67
2022/09/04 12:08:30;;;;;;;7.65;7.05;;;;;;;;;;4984681;28;20100;-67
2022/09/04 12:11:15;;;;;;;7.80;7.32;;;;;;;;;;5005975;28;20065;-67
2022/09/04 12:13:58;;;;;;;7.88;7.38;;;;;;;;;;5005303;28;20101;-68
2022/09/04 12:16:38;;;;;;;8.20;7.60;;;;;;;;;;5006164;28;20029;-67
2022/09/04 12:19:41;;;;;;;8.00;7.35;;;;;;;;;;5006579;28;20457;-67
2022/09/04 12:22:38;;;;;;;8.18;7.75;;;;;;;;;;5004358;28;20404;-67
2022/09/04 12:25:16;;;;;;;7.97;7.30;;;;;;;;;;5005822;28;20070;-67
2022/09/04 12:27:47;;;;;;;7.82;7.32;;;;;;;;;;5005876;28;20037;-67
2022/09/04 12:30:24;;;;;;;8.05;7.65;;;;;;;;;;5004305;28;20034;-67
2022/09/04 12:33:16;;;;;;;7.93;7.43;;;;;;;;;;5021187;28;20531;-67
2022/09/04 12:36:22;;;;;;;7.93;7.32;;;;;;;;;;5006966;28;20033;-67
2022/09/04 12:39:05;;;;;;;8.45;7.82;;;;;;;;;;5005493;28;20038;-67
2022/09/04 12:42:02;;;;;;;7.88;7.40;;;;;;;;;;5004408;28;20124;-67
2022/09/04 12:44:42;;;;;;;8.18;7.55;;;;;;;;;;5004035;28;20042;-67
2022/09/04 12:47:21;;;;;;;8.05;7.40;;;;;;;;;;5006140;28;20042;-67
2022/09/04 12:50:27;;;;;;;7.97;7.47;;;;;;;;;;5004339;28;20049;-67
2022/09/04 12:52:52;;;;;;;7.95;7.50;;;;;;;;;;5005907;28;20365;-66
2022/09/04 12:55:30;;;;;;;7.65;7.15;;;;;;;;;;5005598;28;20054;-66
2022/09/04 12:58:04;;;;;;;8.40;7.90;;;;;;;;;;5004953;28;20080;-66
2022/09/04 13:01:07;;;;;;;8.35;7.85;;;;;;;;;;5004953;28;20100;-65
2022/09/04 13:03:57;;;;;;;8.50;7.93;;;;;;;;;;5006734;28;20053;-66
2022/09/04 13:06:42;;;;;;;8.30;7.80;;;;;;;;;;5002612;28;20044;-66
2022/09/04 13:09:40;;;;;;;8.55;7.88;;;;;;;;;;5005334;28;20041;-65
2022/09/04 13:12:33;;;;;;;8.50;8.00;;;;;;;;;;4977144;28;20692;-67
2022/09/04 13:15:23;;;;;;;8.32;7.85;;;;;;;;;;4998413;28;20030;-66
2022/09/04 13:18:01;;;;;;;8.50;8.00;;;;;;;;;;4976677;28;20042;-67
2022/09/04 13:20:44;;;;;;;8.68;7.95;;;;;;;;;;5002854;28;20049;-66
2022/09/04 13:23:24;;;;;;;8.30;7.70;;;;;;;;;;5001349;28;20042;-67
2022/09/04 13:26:12;;;;;;;7.80;7.40;;;;;;;;;;5005261;28;20489;-66
2022/09/04 13:28:44;;;;;;;8.68;8.05;;;;;;;;;;5008341;28;20033;-66
2022/09/04 13:31:12;;;;;;;8.43;7.85;;;;;;;;;;5002814;28;20052;-66
2022/09/04 13:34:16;;;;;;;8.10;7.60;;;;;;;;;;5004069;28;20038;-66
2022/09/04 13:36:48;;;;;;;8.15;7.65;;;;;;;;;;5005665;28;20108;-63
2022/09/04 13:39:33;;;;;;;8.20;7.70;;;;;;;;;;5003576;28;20445;-64
2022/09/04 13:42:17;;;;;;;8.23;7.68;;;;;;;;;;5005550;28;20033;-64
2022/09/04 13:45:10;;;;;;;8.07;7.57;;;;;;;;;;5004708;28;20042;-64
2022/09/04 13:47:42;;;;;;;7.78;7.38;;;;;;;;;;5003211;28;20041;-63
2022/09/04 13:50:36;;;;;;;7.75;7.15;;;;;;;;;;5003865;28;20157;-64
2022/09/04 13:53:11;;;;;;;8.20;7.70;;;;;;;;;;5006193;28;20502;-61
2022/09/04 13:56:01;;;;;;;8.52;7.93;;;;;;;;;;5004867;28;20037;-64
2022/09/04 13:58:39;;;;;;;8.38;7.70;;;;;;;;;;5000746;28;20037;-65
2022/09/04 14:01:10;;;;;;;8.52;8.02;;;;;;;;;;5002542;28;20075;-65
2022/09/04 14:03:42;;;;;;;8.20;7.70;;;;;;;;;;5005271;28;20057;-66
2022/09/04 14:06:11;;;;;;;8.85;8.27;;;;;;;;;;5003695;28;20145;-66
2022/09/04 14:08:38;;;;;;;8.50;7.90;;;;;;;;;;5006970;28;20030;-65
2022/09/04 14:11:04;;;;;;;9.32;8.70;;;;;;;;;;5006293;28;21450;-67
2022/09/04 14:14:01;;;;;;;8.80;8.20;;;;;;;;;;5008861;28;20038;-66
2022/09/04 14:16:32;;;;;;;9.00;8.30;;;;;;;;;;5008595;28;20071;-66
2022/09/04 14:19:20;;;;;;;9.10;8.50;;;;;;;;;;5009512;28;20025;-66
2022/09/04 14:22:01;;;;;;;8.90;8.38;;;;;;;;;;5011109;28;20113;-66
2022/09/04 14:24:34;;;;;;;8.20;7.70;;;;;;;;;;4998301;28;20390;-66
2022/09/04 14:27:18;;;;;;;8.50;8.00;;;;;;;;;;5009116;28;20160;-64
2022/09/04 14:30:07;;;;;;;8.52;8.02;;;;;;;;;;5009354;28;20195;-66
2022/09/04 14:32:53;;;;;;;8.52;8.02;;;;;;;;;;5039909;28;20447;-65
2022/09/04 14:35:48;;;;;;;8.20;7.70;;;;;;;;;;5009507;28;20029;-65
2022/09/04 14:38:43;;;;;;;8.23;7.72;;;;;;;;;;5005385;28;20028;-65
2022/09/04 14:41:33;;;;;;;8.75;8.25;;;;;;;;;;5000682;28;20041;-65
2022/09/04 14:44:02;;;;;;;9.10;8.50;;;;;;;;;;5005778;28;20044;-65
2022/09/04 14:46:46;;;;;;;8.45;7.82;;;;;;;;;;5008381;28;20069;-66
2022/09/04 14:49:20;;;;;;;9.45;8.48;;;;;;;;;;5008138;28;20053;-66
2022/09/04 14:51:49;;;;;;;8.75;8.25;;;;;;;;;;5004685;28;20117;-66
2022/09/04 14:54:18;;;;;;;8.57;8.00;;;;;;;;;;5008298;28;20144;-66
2022/09/04 14:56:47;;;;;;;8.85;8.25;;;;;;;;;;5011384;28;20034;-66
2022/09/04 14:59:25;;;;;;;8.60;8.10;;;;;;;;;;5007085;28;20073;-65
2022/09/04 15:02:13;;;;;;;8.85;8.35;;;;;;;;;;5007373;28;20046;-65
2022/09/04 15:04:46;;;;;;;9.23;8.52;;;;;;;;;;5008346;28;20119;-65
2022/09/04 15:07:28;;;;;;;8.77;8.20;;;;;;;;;;5009117;28;20526;-66
2022/09/04 15:10:23;;;;;;;9.00;8.50;;;;;;;;;;5005058;28;20072;-65
2022/09/04 15:12:54;;;;;;;8.73;8.07;;;;;;;;;;5008351;28;20052;-65
2022/09/04 15:15:37;;;;;;;8.20;7.70;;;;;;;;;;5007763;28;20041;-65
2022/09/04 15:18:18;;;;;;;7.93;7.47;;;;;;;;;;5005917;28;20528;-65
2022/09/04 15:20:52;;;;;;;8.50;8.00;;;;;;;;;;5008742;28;20029;-65
2022/09/04 15:23:25;;;;;;;8.43;7.93;;;;;;;;;;5007849;28;20748;-65
2022/09/04 15:26:06;;;;;;;8.63;7.78;;;;;;;;;;5009062;28;20030;-65
2022/09/04 15:28:43;;;;;;;8.60;7.90;;;;;;;;;;5007127;28;20308;-65
2022/09/04 15:31:14;;;;;;;8.52;8.02;;;;;;;;;;5008465;28;20044;-65
2022/09/04 15:38:56;;;;;;;33.00;27.83;;;;;;;;;;5045407;28;20945;-70
2022/09/04 15:41:30;;;;;;;8.65;7.93;;;;;;;;;;5039683;28;20045;-70
2022/09/04 15:44:11;;;;;;;11.18;8.45;;;;;;;;;;5043209;28;20571;-70
2022/09/04 15:47:02;;;;;;;7.90;7.30;;;;;;;;;;5025809;28;20126;-69
2022/09/04 15:49:37;;;;;;;8.05;7.55;;;;;;;;;;5025012;28;20037;-70
2022/09/04 15:52:09;;;;;;;7.95;7.32;;;;;;;;;;5026256;28;20045;-70
2022/09/04 15:55:09;;;;;;;7.20;6.70;;;;;;;;;;5021947;28;20057;-70
2022/09/04 15:57:45;;;;;;;7.38;6.95;;;;;;;;;;5027173;28;20057;-70
2022/09/04 16:00:14;;;;;;;7.43;6.93;;;;;;;;;;5026367;28;20197;-69
2022/09/04 16:02:53;;;;;;;7.10;6.60;;;;;;;;;;5017701;28;20042;-68
2022/09/04 16:05:26;;;;;;;;;;;;;;;;;;5026606;28;20041;-69
2022/09/04 16:08:19;;;;;;;7.80;7.30;;;;;;;;;;5044078;28;20758;-69
2022/09/04 16:10:44;;;;;;;7.20;6.80;;;;;;;;;;5022514;28;20099;-69
2022/09/04 16:13:25;;;;;;;7.32;6.72;;;;;;;;;;5024006;28;20045;-69
2022/09/04 16:16:12;;;;;;;7.47;6.97;;;;;;;;;;5022929;28;20033;-71